Погода Эль-Куфана неделю

Наяф, Ирак

16 - 22 июня
  • 16июня
    Сегодня
    +34°
    +48°
    Ясно и безоблачно
    ВремяПогодаТемператураВлажностьДавлениеВетер, м/сВероятность осадков
    00:00Ясно и безоблачно+37°C17 %745 мм0.9 м/с0 %
    03:00Ясно и безоблачно+33°C21 %745 мм1.0 м/с0 %
    06:00Ясно и безоблачно+32°C22 %746 мм0.8 м/с0 %
    09:00Ясно и безоблачно+40°C13 %747 мм1.3 м/с0 %
    12:00Ясно и безоблачно+46°C8 %747 мм2.1 м/с0 %
    15:00Ясно и безоблачно+48°C6 %746 мм5.6 м/с0 %
    18:00Ясно и безоблачно+46°C7 %746 мм2.0 м/с0 %
    21:00Ясно и безоблачно+41°C10 %747 мм0.9 м/с0 %
  • 17июня
    Понедельник
    +34°
    +49°
    Практически безоблачно
    ВремяПогодаТемператураВлажностьДавлениеВетер, м/сВероятность осадков
    00:00Ясно и безоблачно+38°C14 %747 мм0.9 м/с0 %
    03:00Ясно и безоблачно+36°C16 %747 мм0.6 м/с0 %
    06:00Ясно и безоблачно+34°C18 %748 мм0.6 м/с0 %
    09:00Ясно и безоблачно+41°C11 %749 мм0.9 м/с0 %
    12:00Ясно и безоблачно+47°C6 %748 мм1.2 м/с0 %
    15:00Практически безоблачно+48°C6 %747 мм4.5 м/с0 %
    18:00Ясно и безоблачно+47°C7 %747 мм2.1 м/с0 %
    21:00Ясно и безоблачно+42°C10 %747 мм1.3 м/с0 %
  • 18июня
    Вторник
    +34°
    +50°
    Ясно и безоблачно
    ВремяПогодаТемператураВлажностьДавлениеВетер, м/сВероятность осадков
    00:00Ясно и безоблачно+39°C13 %747 мм1.1 м/с0 %
    03:00Ясно и безоблачно+37°C14 %747 мм0.8 м/с0 %
    06:00Ясно и безоблачно+35°C17 %748 мм0.8 м/с0 %
    09:00Ясно и безоблачно+42°C9 %749 мм1.4 м/с0 %
    12:00Ясно и безоблачно+48°C5 %748 мм1.9 м/с0 %
    15:00Ясно и безоблачно+49°C5 %747 мм5.6 м/с0 %
    18:00Практически безоблачно+47°C5 %746 мм1.8 м/с0 %
    21:00Ясно и безоблачно+42°C8 %748 мм1.3 м/с0 %
  • 19июня
    Среда
    +34°
    +50°
    Ясно и безоблачно
    ВремяПогодаТемператураВлажностьДавлениеВетер, м/сВероятность осадков
    00:00Ясно и безоблачно+39°C10 %747 мм1.0 м/с0 %
    03:00Ясно и безоблачно+37°C11 %747 мм0.8 м/с0 %
    06:00Ясно и безоблачно+35°C11 %747 мм0.4 м/с0 %
    09:00Ясно и безоблачно+42°C5 %748 мм0.7 м/с0 %
    12:00Ясно и безоблачно+48°C4 %748 мм1.9 м/с0 %
    15:00Ясно и безоблачно+49°C3 %746 мм7.8 м/с0 %
    18:00Ясно и безоблачно+47°C5 %746 мм2.4 м/с0 %
    21:00Ясно и безоблачно+42°C6 %747 мм1.7 м/с0 %
  • 20июня
    Четверг
    +34°
    +50°
    Ясно и безоблачно
    ВремяПогодаТемператураВлажностьДавлениеВетер, м/сВероятность осадков
    00:00Ясно и безоблачно+39°C9 %747 мм1.1 м/с0 %
    03:00Ясно и безоблачно+37°C10 %745 мм0.8 м/с0 %
    06:00Ясно и безоблачно+35°C11 %746 мм0.9 м/с0 %
    09:00Ясно и безоблачно+43°C7 %746 мм1.7 м/с0 %
    12:00Ясно и безоблачно+48°C5 %746 мм2.7 м/с0 %
    15:00Ясно и безоблачно+50°C4 %744 мм8.2 м/с0 %
    18:00Ясно и безоблачно+48°C5 %744 мм2.3 м/с0 %
    21:00Ясно и безоблачно+43°C9 %745 мм1.5 м/с0 %
Мы используем cookies
Соглашаюсь